createdAt,value
2019-03-09T00:00:42.914Z,48.73
2019-03-09T00:01:48.487Z,48.71
2019-03-09T00:02:50.693Z,48.72
2019-03-09T00:03:52.934Z,48.72
2019-03-09T00:04:55.216Z,48.72
2019-03-09T00:05:57.496Z,48.72
2019-03-09T00:06:59.715Z,48.73
2019-03-09T00:08:01.927Z,48.69
2019-03-09T00:09:04.364Z,48.69
2019-03-09T00:10:06.553Z,48.71
2019-03-09T00:11:08.757Z,48.72
2019-03-09T00:12:10.971Z,48.70
2019-03-09T00:13:13.169Z,48.71
2019-03-09T00:14:15.399Z,48.71
2019-03-09T00:15:17.668Z,48.69
2019-03-09T00:16:19.909Z,48.66
2019-03-09T00:17:24.642Z,48.70
2019-03-09T00:18:26.850Z,48.69
2019-03-09T00:19:29.097Z,48.70
2019-03-09T00:20:31.304Z,48.72
2019-03-09T00:21:33.539Z,48.73
2019-03-09T00:22:35.750Z,48.72
2019-03-09T00:24:06.305Z,48.74
2019-03-09T00:25:17.801Z,48.75
2019-03-09T00:26:48.071Z,48.76
2019-03-09T00:27:55.322Z,48.72
2019-03-09T00:29:03.211Z,48.77
2019-03-09T00:30:36.533Z,48.74
2019-03-09T00:31:43.764Z,48.75
2019-03-09T00:32:45.965Z,48.76
2019-03-09T00:33:48.159Z,48.76
2019-03-09T00:34:50.352Z,48.77
2019-03-09T00:35:52.596Z,48.77
2019-03-09T00:36:54.807Z,48.77
2019-03-09T00:37:57.016Z,48.77
2019-03-09T00:39:01.555Z,48.80
2019-03-09T00:40:04.078Z,48.79
2019-03-09T00:41:06.322Z,48.77
2019-03-09T00:42:08.560Z,48.79
2019-03-09T00:43:10.775Z,48.79
2019-03-09T00:44:12.994Z,48.77
2019-03-09T00:45:15.180Z,48.77
2019-03-09T00:46:17.544Z,48.77
2019-03-09T00:47:19.734Z,48.78
2019-03-09T00:48:21.956Z,48.80
2019-03-09T00:49:24.155Z,48.78
2019-03-09T00:50:26.352Z,48.78
2019-03-09T00:51:28.628Z,48.77
2019-03-09T00:52:31.127Z,48.78
2019-03-09T00:53:33.342Z,48.75
2019-03-09T00:54:35.539Z,48.76
2019-03-09T00:55:37.741Z,48.78
2019-03-09T00:56:40.001Z,48.80
2019-03-09T00:57:42.202Z,48.77
2019-03-09T00:58:44.422Z,48.76
2019-03-09T00:59:46.648Z,48.77
2019-03-09T01:00:48.865Z,48.77
2019-03-09T01:01:51.110Z,48.78
2019-03-09T01:02:53.318Z,48.77
2019-03-09T01:03:55.516Z,48.78
2019-03-09T01:04:57.743Z,48.78
2019-03-09T01:05:59.952Z,48.79
2019-03-09T01:07:02.193Z,48.78
2019-03-09T01:08:04.408Z,48.79
2019-03-09T01:09:06.611Z,48.78
2019-03-09T01:10:08.825Z,48.78
2019-03-09T01:11:11.031Z,48.79
2019-03-09T01:12:13.244Z,48.78
2019-03-09T01:13:15.462Z,48.76
2019-03-09T01:14:17.664Z,48.80
2019-03-09T01:15:19.859Z,48.80
2019-03-09T01:16:22.111Z,48.79
2019-03-09T01:17:24.298Z,48.81
2019-03-09T01:18:26.499Z,48.81
2019-03-09T01:19:28.714Z,48.79
2019-03-09T01:20:30.913Z,48.81
2019-03-09T01:21:33.136Z,48.79
2019-03-09T01:22:35.367Z,48.81
2019-03-09T01:23:37.561Z,48.81
2019-03-09T01:24:39.747Z,48.81
2019-03-09T01:25:41.954Z,48.81
2019-03-09T01:26:44.171Z,48.79
2019-03-09T01:27:46.398Z,48.81
2019-03-09T01:28:48.639Z,48.79
2019-03-09T01:29:51.032Z,48.78
2019-03-09T01:30:53.234Z,48.77
2019-03-09T01:31:55.438Z,48.77
2019-03-09T01:32:57.654Z,48.79
2019-03-09T01:33:59.856Z,48.80
2019-03-09T01:35:02.065Z,48.79
2019-03-09T01:36:04.267Z,48.78
2019-03-09T01:37:06.508Z,48.78
2019-03-09T01:38:08.755Z,48.79
2019-03-09T01:39:10.947Z,48.80
2019-03-09T01:40:13.150Z,48.80
2019-03-09T01:41:15.355Z,48.81
2019-03-09T01:42:17.556Z,48.81
2019-03-09T01:43:19.776Z,48.81
2019-03-09T01:44:21.970Z,48.82
2019-03-09T01:45:24.163Z,48.81
2019-03-09T01:46:26.360Z,48.81
2019-03-09T01:47:28.576Z,48.80
2019-03-09T01:48:30.796Z,48.81
2019-03-09T01:49:33.007Z,48.83
2019-03-09T01:50:35.197Z,48.84
2019-03-09T01:51:37.397Z,48.83
2019-03-09T01:52:39.595Z,48.80
2019-03-09T01:53:41.813Z,48.81
2019-03-09T01:54:44.014Z,48.82
2019-03-09T01:55:46.204Z,48.80
2019-03-09T01:56:48.418Z,48.82
2019-03-09T01:57:50.610Z,48.81
2019-03-09T01:58:52.824Z,48.79
2019-03-09T01:59:55.030Z,48.79
2019-03-09T02:00:57.241Z,48.80
2019-03-09T02:01:59.428Z,48.80
2019-03-09T02:03:01.635Z,48.82
2019-03-09T02:04:03.829Z,48.82
2019-03-09T02:05:06.235Z,48.80
2019-03-09T02:06:08.436Z,48.80
2019-03-09T02:07:10.661Z,48.79
2019-03-09T02:08:12.849Z,48.79
2019-03-09T02:09:15.074Z,48.78
2019-03-09T02:10:17.276Z,48.75
2019-03-09T02:11:19.502Z,48.78
2019-03-09T02:12:21.699Z,48.78
2019-03-09T02:13:23.904Z,48.78
2019-03-09T02:14:26.128Z,48.77
2019-03-09T02:15:28.340Z,48.77
2019-03-09T02:16:30.527Z,48.76
2019-03-09T02:17:32.734Z,48.77
2019-03-09T02:18:34.930Z,48.76
2019-03-09T02:19:37.154Z,48.79
2019-03-09T02:20:39.356Z,48.77
2019-03-09T02:21:43.272Z,48.78
2019-03-09T02:22:45.474Z,48.76
2019-03-09T02:23:47.679Z,48.76
2019-03-09T02:24:49.885Z,48.76
2019-03-09T02:25:52.078Z,48.78
2019-03-09T02:26:54.276Z,48.78
2019-03-09T02:27:56.482Z,48.76
2019-03-09T02:29:04.573Z,48.77
2019-03-09T02:30:06.771Z,48.77
2019-03-09T02:31:08.974Z,48.77
2019-03-09T02:32:11.194Z,48.75
2019-03-09T02:33:13.385Z,48.79
2019-03-09T02:34:15.606Z,48.80
2019-03-09T02:35:17.827Z,48.79
2019-03-09T02:36:20.016Z,48.78
2019-03-09T02:37:22.233Z,48.77
2019-03-09T02:38:35.998Z,48.82
2019-03-09T02:39:46.260Z,48.78
2019-03-09T02:40:48.473Z,48.79
2019-03-09T02:41:50.657Z,48.78
2019-03-09T02:42:52.848Z,48.80
2019-03-09T02:43:55.064Z,48.79
2019-03-09T02:44:57.288Z,48.80
2019-03-09T02:45:59.487Z,48.78
2019-03-09T02:47:01.702Z,48.81
2019-03-09T02:48:06.663Z,48.81
2019-03-09T02:49:08.884Z,48.83
2019-03-09T02:50:11.084Z,48.81
2019-03-09T02:51:13.273Z,48.82
2019-03-09T02:52:15.483Z,48.81
2019-03-09T02:53:17.698Z,48.82
2019-03-09T02:54:19.917Z,48.83
2019-03-09T02:55:22.145Z,48.82
2019-03-09T02:56:24.342Z,48.82
2019-03-09T02:57:26.544Z,48.82
2019-03-09T02:58:28.754Z,48.81
2019-03-09T02:59:30.968Z,48.83
2019-03-09T03:00:41.931Z,48.84
2019-03-09T03:01:52.470Z,48.86
2019-03-09T03:02:57.773Z,48.84
2019-03-09T03:03:59.986Z,48.84
2019-03-09T03:05:02.215Z,48.84
2019-03-09T03:06:04.415Z,48.84
2019-03-09T03:07:09.549Z,48.84
2019-03-09T03:08:11.748Z,48.84
2019-03-09T03:09:13.971Z,48.85
2019-03-09T03:10:16.199Z,48.84
2019-03-09T03:11:18.419Z,48.83
2019-03-09T03:12:20.616Z,48.84
2019-03-09T03:13:22.831Z,48.84
2019-03-09T03:14:25.063Z,48.84
2019-03-09T03:15:27.266Z,48.83
2019-03-09T03:16:29.479Z,48.87
2019-03-09T03:17:31.680Z,48.86
2019-03-09T03:18:33.874Z,48.89
2019-03-09T03:19:36.093Z,48.84
2019-03-09T03:20:38.404Z,48.87
2019-03-09T03:21:40.595Z,48.86
2019-03-09T03:22:42.802Z,48.90
2019-03-09T03:23:45.023Z,48.89
2019-03-09T03:24:47.235Z,48.90
2019-03-09T03:25:49.435Z,48.88
2019-03-09T03:26:51.637Z,48.89
2019-03-09T03:27:53.906Z,48.90
2019-03-09T03:28:56.102Z,48.92
2019-03-09T03:29:58.357Z,48.91
2019-03-09T03:31:00.571Z,48.92
2019-03-09T03:32:02.748Z,48.92
2019-03-09T03:33:04.952Z,48.94
2019-03-09T03:34:07.174Z,48.94
2019-03-09T03:35:09.377Z,48.98
2019-03-09T03:36:11.597Z,48.98
2019-03-09T03:37:13.800Z,48.99
2019-03-09T03:38:15.987Z,48.98
2019-03-09T03:39:18.181Z,49.00
2019-03-09T03:40:20.394Z,49.00
2019-03-09T03:41:22.591Z,49.02
2019-03-09T03:42:24.791Z,49.02
2019-03-09T03:43:27.193Z,49.01
2019-03-09T03:44:29.407Z,49.04
2019-03-09T03:45:31.626Z,49.03
2019-03-09T03:46:33.831Z,49.01
2019-03-09T03:47:38.498Z,49.05
2019-03-09T03:48:40.700Z,49.05
2019-03-09T03:49:42.896Z,49.04
2019-03-09T03:50:49.587Z,49.03
2019-03-09T03:51:51.798Z,49.06
2019-03-09T03:52:54.001Z,49.03
2019-03-09T03:53:56.221Z,49.05
2019-03-09T03:54:58.440Z,49.06
2019-03-09T03:56:00.656Z,49.06
2019-03-09T03:57:02.885Z,49.06
2019-03-09T03:58:05.063Z,49.09
2019-03-09T03:59:08.377Z,49.07
2019-03-09T04:00:10.603Z,49.08
2019-03-09T04:01:12.806Z,49.07
2019-03-09T04:02:15.026Z,49.10
2019-03-09T04:03:17.216Z,49.09
2019-03-09T04:04:19.432Z,49.11
2019-03-09T04:05:21.682Z,49.11
2019-03-09T04:06:23.886Z,49.08
2019-03-09T04:07:26.089Z,49.08
2019-03-09T04:08:28.306Z,49.09
2019-03-09T04:09:30.484Z,49.10
2019-03-09T04:10:32.681Z,49.11
2019-03-09T04:11:34.894Z,49.10
2019-03-09T04:12:37.110Z,49.12
2019-03-09T04:13:39.306Z,49.10
2019-03-09T04:14:41.512Z,49.10
2019-03-09T04:15:43.918Z,49.11
2019-03-09T04:16:46.181Z,49.11
2019-03-09T04:17:48.397Z,49.08
2019-03-09T04:18:53.082Z,49.10
2019-03-09T04:19:55.274Z,49.10
2019-03-09T04:21:01.845Z,49.12
2019-03-09T04:22:03.060Z,49.11
2019-03-09T04:23:05.282Z,49.10
2019-03-09T04:24:07.490Z,49.11
2019-03-09T04:25:09.707Z,49.10
2019-03-09T04:26:12.075Z,49.11
2019-03-09T04:27:14.287Z,49.13
2019-03-09T04:28:16.487Z,49.13
2019-03-09T04:29:18.684Z,49.11
2019-03-09T04:30:20.904Z,49.12
2019-03-09T04:31:23.106Z,49.14
2019-03-09T04:32:25.314Z,49.15
2019-03-09T04:33:27.520Z,49.14
2019-03-09T04:34:29.720Z,49.14
2019-03-09T04:35:31.950Z,49.15
2019-03-09T04:36:36.221Z,49.15
2019-03-09T04:37:38.558Z,49.13
2019-03-09T04:38:43.282Z,49.13
2019-03-09T04:39:47.786Z,49.14
2019-03-09T04:40:49.999Z,49.14
2019-03-09T04:41:52.206Z,49.17
2019-03-09T04:42:54.418Z,49.16
2019-03-09T04:43:56.622Z,49.15
2019-03-09T04:44:58.822Z,49.16
2019-03-09T04:46:01.031Z,49.17
2019-03-09T04:47:05.956Z,49.18
2019-03-09T04:48:08.170Z,49.18
2019-03-09T04:49:10.386Z,49.17
2019-03-09T04:50:12.973Z,49.17
2019-03-09T04:51:15.185Z,49.18
2019-03-09T04:52:17.462Z,49.18
2019-03-09T04:53:19.682Z,49.19
2019-03-09T04:54:21.889Z,49.20
2019-03-09T04:55:24.254Z,49.18
2019-03-09T04:56:26.464Z,49.21
2019-03-09T04:57:28.683Z,49.23
2019-03-09T04:58:30.882Z,49.22
2019-03-09T04:59:33.182Z,49.22
2019-03-09T05:00:35.398Z,49.19
2019-03-09T05:01:37.638Z,49.21
2019-03-09T05:02:39.950Z,49.22
2019-03-09T05:03:42.154Z,49.22
2019-03-09T05:04:44.372Z,49.21
2019-03-09T05:05:46.591Z,49.22
2019-03-09T05:06:48.882Z,49.25
2019-03-09T05:07:51.091Z,49.23
2019-03-09T05:08:53.282Z,49.23
2019-03-09T05:09:55.481Z,49.23
2019-03-09T05:10:57.701Z,49.23
2019-03-09T05:11:59.892Z,49.24
2019-03-09T05:13:02.107Z,49.23
2019-03-09T05:14:04.530Z,49.24
2019-03-09T05:15:06.713Z,49.25
2019-03-09T05:16:08.940Z,49.25
2019-03-09T05:17:11.143Z,49.27
2019-03-09T05:18:13.336Z,49.25
2019-03-09T05:19:15.546Z,49.26
2019-03-09T05:20:19.364Z,49.25
2019-03-09T05:21:21.599Z,49.26
2019-03-09T05:22:23.819Z,49.30
2019-03-09T05:23:26.019Z,49.32
2019-03-09T05:24:28.228Z,49.27
2019-03-09T05:25:30.435Z,49.27
2019-03-09T05:26:32.654Z,49.31
2019-03-09T05:27:34.851Z,49.31
2019-03-09T05:28:37.044Z,49.32
2019-03-09T05:29:39.257Z,49.31
2019-03-09T05:30:41.467Z,49.32
2019-03-09T05:31:43.675Z,49.31
2019-03-09T05:32:45.866Z,49.30
2019-03-09T05:33:48.055Z,49.28
2019-03-09T05:34:50.291Z,49.27
2019-03-09T05:35:52.456Z,49.24
2019-03-09T05:36:54.659Z,49.24
2019-03-09T05:37:56.849Z,49.20
2019-03-09T05:38:59.258Z,49.15
2019-03-09T05:40:01.468Z,49.13
2019-03-09T05:41:03.677Z,49.06
2019-03-09T05:42:05.893Z,49.05
2019-03-09T05:43:08.089Z,49.05
2019-03-09T05:44:10.391Z,49.00
2019-03-09T05:45:12.599Z,48.96
2019-03-09T05:46:14.829Z,48.96
2019-03-09T05:47:17.042Z,48.96
2019-03-09T05:48:19.253Z,48.94
2019-03-09T05:49:21.451Z,48.92
2019-03-09T05:50:23.660Z,48.91
2019-03-09T05:51:25.903Z,48.90
2019-03-09T05:52:28.143Z,48.92
2019-03-09T05:53:30.339Z,48.92
2019-03-09T05:54:32.535Z,48.94
2019-03-09T05:55:34.749Z,48.94
2019-03-09T05:56:36.977Z,48.94
2019-03-09T05:57:39.285Z,48.95
2019-03-09T05:58:41.474Z,48.97
2019-03-09T05:59:43.678Z,49.02
2019-03-09T06:00:45.919Z,49.02
2019-03-09T06:01:48.099Z,49.00
2019-03-09T06:02:50.299Z,49.05
2019-03-09T06:03:52.497Z,49.09
2019-03-09T06:04:54.703Z,49.12
2019-03-09T06:05:56.935Z,49.14
2019-03-09T06:06:59.142Z,49.11
2019-03-09T06:08:01.368Z,49.13
2019-03-09T06:09:04.054Z,49.14
2019-03-09T06:10:06.275Z,49.17
2019-03-09T06:11:08.485Z,49.17
2019-03-09T06:12:10.713Z,49.20
2019-03-09T06:13:12.917Z,49.22
2019-03-09T06:14:15.129Z,49.25
2019-03-09T06:15:17.323Z,49.26
2019-03-09T06:16:19.519Z,49.28
2019-03-09T06:17:21.719Z,49.29
2019-03-09T06:18:23.912Z,49.29
2019-03-09T06:19:26.119Z,49.35
2019-03-09T06:20:28.328Z,49.32
2019-03-09T06:21:30.539Z,49.35
2019-03-09T06:22:32.755Z,49.33
2019-03-09T06:23:34.955Z,49.36
2019-03-09T06:24:37.178Z,49.33
2019-03-09T06:25:39.398Z,49.36
2019-03-09T06:26:43.198Z,49.35
2019-03-09T06:27:45.395Z,49.38
2019-03-09T06:28:47.626Z,49.39
2019-03-09T06:29:49.972Z,49.40
2019-03-09T06:30:52.173Z,49.41
2019-03-09T06:31:54.400Z,49.40
2019-03-09T06:32:56.610Z,49.41
2019-03-09T06:34:01.535Z,49.40
2019-03-09T06:35:06.536Z,49.42
2019-03-09T06:36:08.744Z,49.42
2019-03-09T06:37:10.951Z,49.40
2019-03-09T06:38:13.166Z,49.42
2019-03-09T06:39:15.354Z,49.42
2019-03-09T06:40:17.580Z,49.41
2019-03-09T06:41:19.881Z,49.43
2019-03-09T06:42:22.108Z,49.44
2019-03-09T06:43:24.290Z,49.46
2019-03-09T06:44:26.495Z,49.45
2019-03-09T06:45:28.692Z,49.46
2019-03-09T06:46:30.902Z,49.44
2019-03-09T06:47:33.128Z,49.46
2019-03-09T06:48:35.338Z,49.46
2019-03-09T06:49:37.675Z,49.46
2019-03-09T06:50:39.887Z,49.45
2019-03-09T06:51:42.098Z,49.47
2019-03-09T06:52:44.332Z,49.47
2019-03-09T06:53:46.544Z,49.49
2019-03-09T06:54:48.745Z,49.48
2019-03-09T06:55:50.950Z,49.49
2019-03-09T06:56:53.148Z,49.50
2019-03-09T06:57:55.378Z,49.50
2019-03-09T06:58:57.867Z,49.53
2019-03-09T07:00:00.133Z,49.52
2019-03-09T07:01:02.391Z,49.52
2019-03-09T07:02:04.598Z,49.50
2019-03-09T07:03:06.813Z,49.52
2019-03-09T07:04:09.021Z,49.50
2019-03-09T07:05:11.219Z,49.52
2019-03-09T07:06:13.438Z,49.52
2019-03-09T07:07:16.852Z,49.51
2019-03-09T07:08:19.098Z,49.53
2019-03-09T07:09:21.302Z,49.53
2019-03-09T07:10:23.509Z,49.52
2019-03-09T07:11:25.754Z,49.53
2019-03-09T07:12:27.925Z,49.55
2019-03-09T07:13:30.148Z,49.54
2019-03-09T07:14:32.377Z,49.56
2019-03-09T07:15:34.558Z,49.55
2019-03-09T07:16:36.754Z,49.55
2019-03-09T07:17:38.964Z,49.54
2019-03-09T07:18:41.210Z,49.53
2019-03-09T07:19:43.411Z,49.55
2019-03-09T07:20:45.610Z,49.55
2019-03-09T07:21:47.856Z,49.55
2019-03-09T07:22:50.048Z,49.56
2019-03-09T07:23:53.767Z,49.55
2019-03-09T07:24:56.073Z,49.56
2019-03-09T07:25:58.272Z,49.56
2019-03-09T07:27:00.574Z,49.56
2019-03-09T07:28:02.760Z,49.56
2019-03-09T07:29:04.988Z,49.55
2019-03-09T07:30:07.194Z,49.54
2019-03-09T07:31:09.505Z,49.52
2019-03-09T07:32:11.704Z,49.53
2019-03-09T07:33:13.918Z,49.52
2019-03-09T07:34:16.126Z,49.53
2019-03-09T07:35:18.315Z,49.52
2019-03-09T07:36:20.513Z,49.52
2019-03-09T07:37:22.718Z,49.53
2019-03-09T07:38:24.938Z,49.52
2019-03-09T07:39:27.149Z,49.49
2019-03-09T07:40:29.355Z,49.50
2019-03-09T07:41:31.611Z,49.51
2019-03-09T07:42:33.804Z,49.50
2019-03-09T07:43:36.025Z,49.51
2019-03-09T07:44:38.246Z,49.50
2019-03-09T07:45:40.470Z,49.51
2019-03-09T07:46:42.656Z,49.51
2019-03-09T07:47:44.846Z,49.50
2019-03-09T07:48:47.073Z,49.51
2019-03-09T07:49:49.405Z,49.49
2019-03-09T07:50:51.607Z,49.48
2019-03-09T07:51:53.815Z,49.49
2019-03-09T07:52:56.030Z,49.46
2019-03-09T07:53:58.245Z,49.45
2019-03-09T07:55:00.479Z,49.43
2019-03-09T07:56:02.392Z,49.42
2019-03-09T07:57:04.616Z,49.28
2019-03-09T07:58:06.848Z,48.91
2019-03-09T07:59:09.035Z,48.47
2019-03-09T08:00:11.264Z,47.78
2019-03-09T08:01:13.467Z,47.74
2019-03-09T08:02:15.692Z,47.53
2019-03-09T08:03:17.887Z,47.66
2019-03-09T08:04:20.111Z,47.83
2019-03-09T08:05:22.363Z,48.06
2019-03-09T08:06:24.565Z,48.33
2019-03-09T08:07:26.774Z,48.49
2019-03-09T08:08:28.987Z,48.59
2019-03-09T08:09:31.183Z,48.62
2019-03-09T08:10:33.410Z,48.65
2019-03-09T08:11:35.630Z,48.69
2019-03-09T08:12:37.844Z,48.68
2019-03-09T08:13:40.282Z,48.69
2019-03-09T08:14:42.600Z,48.71
2019-03-09T08:15:44.822Z,48.73
2019-03-09T08:16:47.058Z,48.85
2019-03-09T08:17:49.284Z,48.88
2019-03-09T08:18:51.544Z,48.97
2019-03-09T08:19:53.770Z,48.93
2019-03-09T08:20:55.968Z,48.88
2019-03-09T08:21:58.198Z,48.88
2019-03-09T08:23:01.871Z,48.90
2019-03-09T08:24:04.043Z,48.96
2019-03-09T08:25:06.256Z,49.01
2019-03-09T08:26:08.461Z,49.06
2019-03-09T08:27:10.784Z,49.15
2019-03-09T08:28:12.984Z,49.17
2019-03-09T08:29:16.087Z,49.20
2019-03-09T08:30:18.329Z,49.26
2019-03-09T08:31:20.522Z,49.29
2019-03-09T08:32:22.737Z,49.33
2019-03-09T08:33:26.148Z,49.39
2019-03-09T08:34:28.395Z,49.36
2019-03-09T08:35:30.583Z,49.37
2019-03-09T08:36:35.963Z,49.45
2019-03-09T08:37:38.165Z,49.48
2019-03-09T08:38:40.375Z,49.48
2019-03-09T08:39:42.613Z,49.50
2019-03-09T08:40:46.741Z,49.49
2019-03-09T08:41:48.929Z,49.51
2019-03-09T08:42:51.135Z,49.55
2019-03-09T08:43:53.333Z,49.57
2019-03-09T08:44:55.579Z,49.58
2019-03-09T08:45:57.828Z,49.59
2019-03-09T08:47:00.083Z,49.58
2019-03-09T08:48:02.297Z,49.60
2019-03-09T08:49:04.523Z,49.59
2019-03-09T08:50:06.735Z,49.58
2019-03-09T08:51:08.980Z,49.59
2019-03-09T08:52:11.155Z,49.59
2019-03-09T08:53:13.356Z,49.59
2019-03-09T08:54:15.544Z,49.62
2019-03-09T08:55:18.212Z,49.51
2019-03-09T08:56:21.903Z,49.49
2019-03-09T08:57:24.155Z,49.49
2019-03-09T08:58:26.315Z,49.53
2019-03-09T08:59:28.536Z,49.50
2019-03-09T09:00:30.913Z,49.44
2019-03-09T09:01:33.104Z,49.39
2019-03-09T09:02:35.283Z,49.50
2019-03-09T09:03:37.488Z,49.49
2019-03-09T09:04:39.699Z,49.54
2019-03-09T09:05:41.928Z,49.62
2019-03-09T09:06:44.113Z,49.66
2019-03-09T09:07:46.343Z,49.71
2019-03-09T09:08:48.546Z,49.73
2019-03-09T09:09:50.747Z,49.66
2019-03-09T09:10:52.998Z,49.74
2019-03-09T09:11:57.536Z,49.81
2019-03-09T09:12:59.766Z,49.86
2019-03-09T09:14:02.073Z,49.90
2019-03-09T09:15:04.402Z,49.88
2019-03-09T09:16:06.641Z,49.95
2019-03-09T09:17:08.842Z,50.00
2019-03-09T09:18:11.062Z,50.28
2019-03-09T09:19:13.280Z,50.00
2019-03-09T09:20:15.495Z,50.15
2019-03-09T09:21:17.732Z,50.00
2019-03-09T09:22:19.948Z,50.15
2019-03-09T09:23:22.192Z,50.12
2019-03-09T09:24:24.443Z,50.22
2019-03-09T09:25:26.612Z,50.07
2019-03-09T09:26:28.832Z,50.23
2019-03-09T09:27:31.042Z,50.33
2019-03-09T09:28:33.251Z,50.25
2019-03-09T09:29:35.464Z,50.47
2019-03-09T09:30:39.642Z,50.37
2019-03-09T09:31:41.880Z,50.33
2019-03-09T09:32:44.093Z,50.34
2019-03-09T09:33:46.307Z,50.55
2019-03-09T09:34:48.500Z,50.67
2019-03-09T09:35:50.719Z,50.32
2019-03-09T09:36:52.973Z,50.38
2019-03-09T09:37:55.249Z,50.77
2019-03-09T09:38:57.450Z,50.42
2019-03-09T09:39:59.782Z,50.72
2019-03-09T09:41:03.012Z,50.85
2019-03-09T09:42:05.230Z,50.78
2019-03-09T09:43:07.433Z,50.68
2019-03-09T09:44:09.659Z,50.91
2019-03-09T09:45:11.863Z,50.91
2019-03-09T09:46:14.073Z,50.92
2019-03-09T09:47:16.317Z,50.91
2019-03-09T09:48:18.573Z,50.87
2019-03-09T09:49:20.773Z,50.93
2019-03-09T09:50:22.980Z,51.00
2019-03-09T09:51:25.208Z,50.96
2019-03-09T09:52:27.458Z,50.80
2019-03-09T09:53:29.752Z,50.88
2019-03-09T09:54:31.955Z,50.68
2019-03-09T09:55:34.280Z,50.62
2019-03-09T09:56:36.492Z,50.77
2019-03-09T09:57:38.726Z,50.69
2019-03-09T09:58:40.935Z,50.96
2019-03-09T09:59:43.166Z,50.62
2019-03-09T10:00:45.393Z,50.56
2019-03-09T10:01:47.591Z,50.96
2019-03-09T10:02:49.866Z,50.67
2019-03-09T10:03:52.080Z,50.83
2019-03-09T10:04:54.292Z,51.04
2019-03-09T10:05:56.498Z,51.23
2019-03-09T10:06:58.700Z,50.76
2019-03-09T10:08:00.932Z,51.41
2019-03-09T10:09:04.260Z,51.13
2019-03-09T10:10:06.648Z,50.89
2019-03-09T10:11:08.856Z,51.50
2019-03-09T10:12:11.090Z,51.43
2019-03-09T10:13:13.322Z,51.15
2019-03-09T10:14:15.540Z,50.94
2019-03-09T10:15:17.749Z,51.50
2019-03-09T10:16:19.959Z,51.00
2019-03-09T10:17:22.136Z,51.01
2019-03-09T10:18:25.471Z,51.25
2019-03-09T10:19:27.678Z,51.08
2019-03-09T10:20:29.887Z,51.14
2019-03-09T10:21:32.091Z,51.24
2019-03-09T10:22:34.309Z,51.19
2019-03-09T10:23:36.528Z,51.61
2019-03-09T10:24:38.818Z,51.23
2019-03-09T10:25:41.010Z,51.35
2019-03-09T10:26:43.222Z,51.69
2019-03-09T10:27:45.410Z,51.22
2019-03-09T10:28:47.641Z,51.80
2019-03-09T10:29:49.780Z,51.65
2019-03-09T10:30:51.992Z,51.75
2019-03-09T10:31:54.190Z,51.46
2019-03-09T10:32:56.397Z,51.67
2019-03-09T10:33:58.609Z,51.31
2019-03-09T10:35:00.812Z,51.24
2019-03-09T10:36:03.015Z,51.27
2019-03-09T10:37:05.218Z,51.50
2019-03-09T10:38:07.432Z,51.37
2019-03-09T10:39:09.659Z,51.47
2019-03-09T10:40:11.878Z,51.67
2019-03-09T10:41:14.074Z,51.95
2019-03-09T10:42:16.275Z,51.79
2019-03-09T10:43:18.669Z,51.52
2019-03-09T10:44:20.872Z,51.49
2019-03-09T10:45:23.103Z,51.53
2019-03-09T10:46:25.315Z,51.58
2019-03-09T10:47:29.055Z,51.50
2019-03-09T10:48:31.292Z,51.69
2019-03-09T10:49:33.504Z,51.45
2019-03-09T10:50:35.717Z,51.61
2019-03-09T10:51:37.931Z,51.75
2019-03-09T10:52:40.151Z,52.12
2019-03-09T10:53:42.387Z,51.87
2019-03-09T10:54:44.701Z,52.26
2019-03-09T10:55:46.962Z,52.30
2019-03-09T10:56:49.175Z,52.48
2019-03-09T10:57:51.405Z,51.92
2019-03-09T10:58:53.623Z,52.03
2019-03-09T10:59:55.843Z,52.07
2019-03-09T11:00:58.164Z,51.95
2019-03-09T11:02:00.377Z,51.89
2019-03-09T11:03:02.603Z,51.72
2019-03-09T11:04:04.842Z,51.53
2019-03-09T11:05:07.089Z,51.55
2019-03-09T11:06:09.307Z,51.36
2019-03-09T11:07:11.531Z,51.50
2019-03-09T11:08:13.658Z,51.46
2019-03-09T11:09:15.950Z,51.42
2019-03-09T11:10:18.161Z,51.30
2019-03-09T11:11:23.172Z,51.19
2019-03-09T11:12:25.387Z,51.51
2019-03-09T11:13:27.604Z,51.56
2019-03-09T11:14:29.793Z,51.50
2019-03-09T11:15:32.017Z,51.29
2019-03-09T11:16:34.238Z,51.42
2019-03-09T11:17:36.461Z,51.43
2019-03-09T11:18:40.239Z,51.40
2019-03-09T11:19:42.474Z,51.47
2019-03-09T11:20:44.680Z,51.39
2019-03-09T11:21:46.887Z,51.26
2019-03-09T11:22:49.102Z,51.40
2019-03-09T11:23:51.341Z,51.33
2019-03-09T11:25:03.169Z,51.27
2019-03-09T11:25:57.516Z,51.31
2019-03-09T11:26:59.759Z,51.21
2019-03-09T11:28:01.968Z,51.01
2019-03-09T11:29:04.183Z,51.02
2019-03-09T11:30:06.491Z,50.89
2019-03-09T11:31:08.705Z,51.03
2019-03-09T11:32:10.963Z,51.12
2019-03-09T11:33:15.644Z,51.15
2019-03-09T11:34:17.880Z,51.31
2019-03-09T11:35:20.109Z,51.08
2019-03-09T11:36:22.322Z,51.17
2019-03-09T11:37:24.529Z,51.24
2019-03-09T11:38:26.803Z,51.11
2019-03-09T11:39:29.013Z,51.18
2019-03-09T11:40:34.274Z,51.18
2019-03-09T11:41:36.491Z,51.00
2019-03-09T11:42:38.698Z,51.15
2019-03-09T11:43:40.907Z,51.18
2019-03-09T11:44:43.188Z,51.09
2019-03-09T11:45:45.463Z,51.06
2019-03-09T11:46:47.745Z,51.01
2019-03-09T11:47:49.955Z,51.11
2019-03-09T11:48:52.167Z,51.05
2019-03-09T11:49:54.383Z,51.11
2019-03-09T11:50:56.610Z,51.11
2019-03-09T11:51:58.833Z,51.07
2019-03-09T11:53:01.037Z,51.06
2019-03-09T11:54:03.281Z,51.29
2019-03-09T11:55:05.497Z,51.03
2019-03-09T11:56:07.737Z,51.09
2019-03-09T11:57:09.959Z,51.26
2019-03-09T11:58:12.180Z,51.22
2019-03-09T11:59:14.385Z,51.19
2019-03-09T12:00:19.682Z,51.30
2019-03-09T12:01:21.925Z,51.53
2019-03-09T12:02:24.131Z,51.36
2019-03-09T12:03:26.348Z,51.30
2019-03-09T12:04:28.561Z,51.13
2019-03-09T12:05:30.798Z,51.16
2019-03-09T12:06:33.028Z,51.05
2019-03-09T12:07:35.239Z,51.57
2019-03-09T12:08:37.457Z,51.18
2019-03-09T12:09:39.677Z,51.24
2019-03-09T12:10:41.880Z,51.52
2019-03-09T12:11:44.112Z,51.36
2019-03-09T12:12:46.328Z,51.36
2019-03-09T12:13:48.521Z,51.36
2019-03-09T12:14:51.079Z,51.42
2019-03-09T12:15:53.287Z,51.43
2019-03-09T12:16:55.521Z,51.40
2019-03-09T12:17:57.782Z,51.37
2019-03-09T12:19:00.031Z,51.44
2019-03-09T12:20:02.253Z,51.38
2019-03-09T12:21:04.570Z,51.33
2019-03-09T12:22:06.773Z,51.48
2019-03-09T12:23:09.012Z,51.54
2019-03-09T12:24:17.419Z,51.53
2019-03-09T12:25:15.063Z,51.47
2019-03-09T12:26:17.269Z,51.48
2019-03-09T12:27:19.515Z,51.52
2019-03-09T12:28:21.772Z,51.64
2019-03-09T12:29:23.975Z,51.65
2019-03-09T12:30:26.176Z,51.90
2019-03-09T12:31:28.411Z,52.03
2019-03-09T12:32:30.688Z,51.82
2019-03-09T12:33:32.905Z,52.06
2019-03-09T12:34:35.128Z,51.71
2019-03-09T12:35:37.343Z,52.05
2019-03-09T12:36:39.555Z,52.17
2019-03-09T12:37:41.854Z,52.13
2019-03-09T12:38:44.221Z,52.22
2019-03-09T12:39:46.417Z,52.02
2019-03-09T12:40:48.643Z,52.17
2019-03-09T12:41:52.524Z,51.94
2019-03-09T12:42:54.759Z,52.36
2019-03-09T12:43:56.950Z,52.55
2019-03-09T12:44:59.177Z,52.27
2019-03-09T12:46:01.381Z,52.55
2019-03-09T12:47:06.070Z,52.72
2019-03-09T12:48:08.343Z,52.27
2019-03-09T12:49:11.756Z,52.68
2019-03-09T12:50:14.018Z,52.33
2019-03-09T12:51:16.234Z,52.33
2019-03-09T12:52:18.436Z,52.47
2019-03-09T12:53:20.656Z,52.32
2019-03-09T12:54:22.876Z,52.51
2019-03-09T12:55:25.087Z,52.52
2019-03-09T12:56:27.272Z,52.46
2019-03-09T12:57:29.482Z,52.49
2019-03-09T12:58:31.714Z,52.52
2019-03-09T12:59:33.920Z,52.57
2019-03-09T13:00:37.433Z,52.49
2019-03-09T13:01:39.666Z,52.67
2019-03-09T13:02:41.857Z,52.81
2019-03-09T13:03:44.090Z,52.62
2019-03-09T13:04:46.290Z,52.61
2019-03-09T13:05:48.500Z,52.79
2019-03-09T13:06:50.715Z,52.79
2019-03-09T13:07:52.929Z,52.70
2019-03-09T13:08:55.164Z,52.83
2019-03-09T13:09:57.368Z,53.40
2019-03-09T13:10:59.577Z,52.81
2019-03-09T13:12:01.783Z,52.90
2019-03-09T13:13:03.988Z,53.01
2019-03-09T13:14:06.220Z,53.18
2019-03-09T13:15:08.412Z,52.84
2019-03-09T13:16:10.625Z,52.95
2019-03-09T13:17:12.819Z,52.75
2019-03-09T13:18:15.031Z,52.74
2019-03-09T13:19:17.278Z,53.04
2019-03-09T13:20:20.503Z,53.23
2019-03-09T13:21:22.728Z,53.29
2019-03-09T13:22:27.255Z,53.19
2019-03-09T13:23:29.463Z,52.85
2019-03-09T13:24:33.169Z,52.83
2019-03-09T13:25:35.378Z,52.90